Time;durP1;ratioP1;P1;durP2;ratioP2;P2;SDS_P1;SDS_P2;PMS_P1;PMS_P2;Temp;Humidity;BMP_temperature;BMP_pressure;BME280_temperature;BME280_humidity;BME280_pressure;Samples;Min_cycle;Max_cycle;Signal;HPM_P1;HPM_P2
2020/12/11 00:00:34;;;;;;;2.67;0.70;;;21.20;53.80;;;;;;5063624;28;20124;-66
2020/12/11 00:03:01;;;;;;;3.92;1.40;;;21.20;53.60;;;;;;5068492;28;20024;-66
2020/12/11 00:05:28;;;;;;;3.38;1.50;;;21.20;53.60;;;;;;5081168;28;20135;-68
2020/12/11 00:07:55;;;;;;;3.20;1.52;;;21.10;53.40;;;;;;5081227;28;20071;-68
2020/12/11 00:10:22;;;;;;;1.60;1.02;;;21.10;54.00;;;;;;5082127;28;20033;-66
2020/12/11 00:12:50;;;;;;;3.25;1.63;;;21.10;53.90;;;;;;5081135;28;20059;-65
2020/12/11 00:15:18;;;;;;;2.40;1.45;;;21.10;54.00;;;;;;5079830;27;20020;-80
2020/12/11 00:17:46;;;;;;;3.22;1.27;;;21.10;54.00;;;;;;5062653;28;20095;-77
2020/12/11 00:20:13;;;;;;;2.72;1.40;;;21.20;54.10;;;;;;5079831;28;20055;-77
2020/12/11 00:22:41;;;;;;;3.55;1.23;;;21.10;54.10;;;;;;5083307;28;20111;-65
2020/12/11 00:25:08;;;;;;;3.08;1.67;;;21.10;54.10;;;;;;5079622;28;20034;-74
2020/12/11 00:27:35;;;;;;;1.95;1.20;;;21.20;54.30;;;;;;5082430;28;20037;-63
2020/12/11 00:30:04;;;;;;;1.95;1.30;;;21.20;54.50;;;;;;5079646;28;20145;-63
2020/12/11 00:32:37;;;;;;;5.30;1.17;;;21.20;54.50;;;;;;5081808;28;20035;-64
2020/12/11 00:35:08;;;;;;;4.82;1.42;;;21.30;54.60;;;;;;5079347;28;20466;-62
2020/12/11 00:37:36;;;;;;;5.97;0.90;;;21.30;54.50;;;;;;5082751;28;20028;-63
2020/12/11 00:40:04;;;;;;;4.50;1.42;;;21.40;54.80;;;;;;5080559;28;20455;-64
2020/12/11 00:42:31;;;;;;;1.92;1.00;;;21.50;55.00;;;;;;5078676;28;20028;-64
2020/12/11 00:44:58;;;;;;;2.95;1.02;;;21.60;55.20;;;;;;5078546;28;20024;-63
2020/12/11 00:47:25;;;;;;;1.35;1.02;;;21.70;55.00;;;;;;5077592;28;20024;-62
2020/12/11 00:49:52;;;;;;;2.13;0.98;;;21.80;55.10;;;;;;5081119;28;20107;-64
2020/12/11 00:52:19;;;;;;;3.08;1.00;;;21.90;55.00;;;;;;5078061;28;20060;-65
2020/12/11 00:54:46;;;;;;;2.20;1.17;;;22.00;55.00;;;;;;5079536;28;20024;-62
2020/12/11 00:57:13;;;;;;;2.78;1.00;;;22.10;55.00;;;;;;5076292;28;20027;-63
2020/12/11 00:59:41;;;;;;;1.83;1.00;;;22.10;55.10;;;;;;5081255;28;20020;-64
2020/12/11 01:02:07;;;;;;;2.42;0.70;;;22.20;55.50;;;;;;5076231;28;20020;-63
2020/12/11 01:04:34;;;;;;;3.67;1.05;;;22.30;55.40;;;;;;5079374;28;20059;-63
2020/12/11 01:07:01;;;;;;;1.42;0.77;;;22.40;55.50;;;;;;5077287;28;20025;-62
2020/12/11 01:09:28;;;;;;;2.05;1.00;;;22.50;55.40;;;;;;5081168;28;20026;-62
2020/12/11 01:11:55;;;;;;;1.60;0.95;;;22.60;55.50;;;;;;5076709;28;20043;-64
2020/12/11 01:14:22;;;;;;;2.03;1.17;;;22.70;55.50;;;;;;5079062;28;20032;-62
2020/12/11 01:16:49;;;;;;;2.00;1.35;;;22.70;55.50;;;;;;5075834;28;20027;-63
2020/12/11 01:19:16;;;;;;;1.95;0.90;;;22.90;55.60;;;;;;5078569;28;20060;-62
2020/12/11 01:21:44;;;;;;;1.33;0.70;;;22.90;55.60;;;;;;5079040;28;20032;-63
2020/12/11 01:24:11;;;;;;;1.33;1.17;;;23.00;55.60;;;;;;5078641;28;20028;-67
2020/12/11 01:26:38;;;;;;;1.55;0.95;;;23.00;55.60;;;;;;5079911;28;20146;-67
2020/12/11 01:29:05;;;;;;;1.08;0.90;;;23.10;55.50;;;;;;5076582;28;20024;-66
2020/12/11 01:31:32;;;;;;;2.08;1.00;;;23.20;55.50;;;;;;5080182;28;20449;-70
2020/12/11 01:33:59;;;;;;;1.65;1.00;;;23.20;55.50;;;;;;5080361;28;20035;-67
2020/12/11 01:36:27;;;;;;;2.13;0.85;;;23.30;55.50;;;;;;5079894;28;20028;-71
2020/12/11 01:38:54;;;;;;;1.25;0.80;;;23.40;55.50;;;;;;5077654;27;20024;-68
2020/12/11 01:41:21;;;;;;;1.75;1.50;;;23.40;55.30;;;;;;5080270;28;20051;-67
2020/12/11 01:43:49;;;;;;;1.33;1.00;;;23.50;55.20;;;;;;5077216;28;20138;-69
2020/12/11 01:46:20;;;;;;;1.35;0.90;;;23.60;55.40;;;;;;5079830;28;20020;-68
2020/12/11 01:48:47;;;;;;;1.27;1.10;;;23.60;55.40;;;;;;5077553;28;20328;-68
2020/12/11 01:51:14;;;;;;;3.17;2.83;;;23.70;55.40;;;;;;5061535;28;20023;-67
2020/12/11 01:53:45;;;;;;;2.10;1.90;;;23.80;55.20;;;;;;5077924;28;20024;-74
2020/12/11 01:56:15;;;;;;;5.18;4.78;;;23.80;55.20;;;;;;5081462;28;20024;-67
2020/12/11 01:58:47;;;;;;;6.18;5.78;;;23.90;55.20;;;;;;5077653;28;20107;-68
2020/12/11 02:01:17;;;;;;;2.60;2.40;;;23.90;55.10;;;;;;5080144;28;20020;-68
2020/12/11 02:03:44;;;;;;;2.85;0.90;;;24.00;55.20;;;;;;5077080;28;20093;-66
2020/12/11 02:06:12;;;;;;;3.10;1.02;;;24.00;53.70;;;;;;5080409;28;20024;-67
2020/12/11 02:08:39;;;;;;;1.92;1.58;;;24.00;54.30;;;;;;5077272;28;20070;-65
2020/12/11 02:11:19;;;;;;;4.80;3.65;;;24.00;54.20;;;;;;5080611;28;20170;-70
2020/12/11 02:13:47;;;;;;;3.05;2.78;;;24.00;54.20;;;;;;5076706;28;20042;-68
2020/12/11 02:16:14;;;;;;;4.43;4.13;;;24.20;54.30;;;;;;5080403;28;20039;-68
2020/12/11 02:18:41;;;;;;;5.25;4.57;;;24.20;54.10;;;;;;5079741;28;20071;-68
2020/12/11 02:21:09;;;;;;;4.20;3.97;;;24.30;54.10;;;;;;5077978;28;20055;-72
2020/12/11 02:23:36;;;;;;;5.70;5.30;;;24.30;54.00;;;;;;5052353;28;20035;-75
2020/12/11 02:26:06;;;;;;;4.68;1.85;;;24.40;54.20;;;;;;5078511;28;20127;-76
2020/12/11 02:28:37;;;;;;;21.20;5.97;;;24.40;52.90;;;;;;5081892;28;20066;-71
2020/12/11 02:31:05;;;;;;;31.77;8.43;;;24.30;52.40;;;;;;5077891;28;20066;-70
2020/12/11 02:33:32;;;;;;;19.42;5.88;;;24.20;52.20;;;;;;5081897;28;20036;-73
2020/12/11 02:35:59;;;;;;;18.20;5.30;;;24.20;52.60;;;;;;5078997;28;20495;-69
2020/12/11 02:38:26;;;;;;;15.52;5.45;;;24.10;52.10;;;;;;5057940;28;20508;-70
2020/12/11 02:40:56;;;;;;;16.95;4.78;;;24.00;52.20;;;;;;5077682;28;20119;-73
2020/12/11 02:43:23;;;;;;;13.68;4.97;;;24.00;52.30;;;;;;5079556;28;20059;-71
2020/12/11 02:45:52;;;;;;;15.27;4.28;;;24.00;52.30;;;;;;5077695;28;20035;-76
2020/12/11 02:48:19;;;;;;;12.32;3.95;;;24.00;52.40;;;;;;5080059;28;20039;-70
2020/12/11 02:50:47;;;;;;;9.65;3.10;;;23.90;52.30;;;;;;5077522;28;20428;-69
2020/12/11 02:53:14;;;;;;;10.50;3.22;;;23.90;52.30;;;;;;5081346;28;20131;-69
2020/12/11 02:55:41;;;;;;;11.38;4.28;;;23.90;52.20;;;;;;5078705;28;20581;-73
2020/12/11 02:58:08;;;;;;;10.13;3.58;;;23.90;52.50;;;;;;5082721;28;20031;-71
2020/12/11 03:00:35;;;;;;;7.10;2.83;;;23.80;52.30;;;;;;5081619;28;20028;-73
2020/12/11 03:03:02;;;;;;;6.45;3.05;;;23.80;52.30;;;;;;5063452;28;20028;-73
2020/12/11 03:05:29;;;;;;;8.27;2.80;;;23.80;52.30;;;;;;5081340;28;20042;-76
2020/12/11 03:07:56;;;;;;;11.30;3.15;;;23.80;53.00;;;;;;5044936;28;20043;-75
2020/12/11 03:10:23;;;;;;;4.70;2.50;;;23.90;53.30;;;;;;5080814;28;20117;-74
2020/12/11 03:12:50;;;;;;;9.50;2.80;;;24.00;53.10;;;;;;5074883;28;20131;-75
2020/12/11 03:15:17;;;;;;;6.55;2.17;;;24.10;53.40;;;;;;5077184;28;20078;-74
2020/12/11 03:17:45;;;;;;;6.15;2.15;;;24.20;53.40;;;;;;5055311;28;20036;-74
2020/12/11 03:20:22;;;;;;;6.20;2.22;;;24.20;53.60;;;;;;5080076;28;20055;-72
2020/12/11 03:22:53;;;;;;;6.45;2.33;;;24.40;53.50;;;;;;5077926;28;20024;-76
2020/12/11 03:25:21;;;;;;;6.30;2.65;;;24.40;52.70;;;;;;5079357;28;20039;-76
2020/12/11 03:27:48;;;;;;;6.25;2.28;;;24.40;52.20;;;;;;5078279;28;20024;-79
2020/12/11 03:30:15;;;;;;;9.18;2.28;;;24.40;52.40;;;;;;5081525;28;20047;-72
2020/12/11 03:32:42;;;;;;;5.30;2.13;;;24.40;52.00;;;;;;5077084;28;20028;-71
2020/12/11 03:35:09;;;;;;;7.60;2.30;;;24.40;52.10;;;;;;5078629;28;20443;-66
2020/12/11 03:37:36;;;;;;;7.53;2.50;;;24.40;51.90;;;;;;5077825;28;20400;-66
2020/12/11 03:40:04;;;;;;;5.57;1.83;;;24.30;51.90;;;;;;5079711;28;20047;-73
2020/12/11 03:42:32;;;;;;;4.63;2.13;;;24.30;52.00;;;;;;5074789;28;20303;-73
2020/12/11 03:44:59;;;;;;;5.07;2.10;;;24.30;51.80;;;;;;5079314;28;20028;-79
2020/12/11 03:47:29;;;;;;;5.47;1.98;;;24.30;51.80;;;;;;5075584;28;20040;-82
2020/12/11 03:49:57;;;;;;;4.35;2.00;;;24.30;51.90;;;;;;5078438;28;20032;-79
2020/12/11 03:52:30;;;;;;;3.75;1.67;;;24.30;51.90;;;;;;5062507;28;20059;-69
2020/12/11 03:55:00;;;;;;;3.67;1.63;;;24.30;52.00;;;;;;5079400;28;20029;-80
2020/12/11 03:57:27;;;;;;;3.75;1.88;;;24.30;52.00;;;;;;5084452;28;20058;-75
2020/12/11 03:59:54;;;;;;;5.82;1.65;;;24.30;51.90;;;;;;5082714;28;20119;-79
2020/12/11 04:02:21;;;;;;;7.13;2.28;;;24.30;51.90;;;;;;5085488;28;20600;-79
2020/12/11 04:04:48;;;;;;;8.43;1.60;;;24.40;52.00;;;;;;5077173;28;20036;-66
2020/12/11 04:07:15;;;;;;;4.78;1.67;;;24.40;52.00;;;;;;5084380;28;20020;-79
2020/12/11 04:09:42;;;;;;;7.13;2.00;;;24.30;51.80;;;;;;5083558;27;20063;-66
2020/12/11 04:12:09;;;;;;;6.47;2.33;;;24.30;51.80;;;;;;5085139;28;20414;-66
2020/12/11 04:14:36;;;;;;;6.50;1.77;;;24.30;51.60;;;;;;5083225;28;20036;-77
2020/12/11 04:17:03;;;;;;;4.47;2.10;;;24.30;51.50;;;;;;5080417;28;20064;-66
2020/12/11 04:19:30;;;;;;;7.03;2.20;;;24.20;51.60;;;;;;5082557;28;20036;-66
2020/12/11 04:21:57;;;;;;;3.67;2.17;;;24.20;51.60;;;;;;5064121;28;20035;-77
2020/12/11 04:24:24;;;;;;;3.80;2.00;;;24.20;51.90;;;;;;5083099;28;20399;-67
2020/12/11 04:26:51;;;;;;;8.68;2.63;;;24.10;51.70;;;;;;5085587;28;20097;-66
2020/12/11 04:29:18;;;;;;;4.65;1.85;;;24.20;51.60;;;;;;5081157;28;20028;-66
2020/12/11 04:31:54;;;;;;;8.30;2.35;;;24.10;51.70;;;;;;5084585;28;20032;-66
2020/12/11 04:34:21;;;;;;;4.90;2.00;;;24.10;51.90;;;;;;5078745;28;20024;-77
2020/12/11 04:36:56;;;;;;;4.25;2.00;;;24.10;51.80;;;;;;5085140;28;20039;-66
2020/12/11 04:39:24;;;;;;;5.75;2.45;;;24.10;51.80;;;;;;5085974;28;20093;-76
2020/12/11 04:41:53;;;;;;;6.68;1.58;;;24.10;51.80;;;;;;5086332;28;20683;-65
2020/12/11 04:44:21;;;;;;;4.30;1.70;;;24.10;51.90;;;;;;5088018;28;20043;-77
2020/12/11 04:46:49;;;;;;;5.32;2.20;;;24.10;51.70;;;;;;5084485;28;20154;-66
2020/12/11 04:49:16;;;;;;;4.18;1.88;;;24.10;51.80;;;;;;5087725;28;20533;-77
2020/12/11 04:51:49;;;;;;;7.00;1.88;;;24.10;51.80;;;;;;5086074;28;20073;-78
2020/12/11 04:54:21;;;;;;;5.95;2.28;;;24.10;51.60;;;;;;5083290;28;20031;-66
2020/12/11 04:56:50;;;;;;;8.35;2.50;;;24.10;51.40;;;;;;5081347;28;20202;-66
2020/12/11 04:59:18;;;;;;;6.03;1.95;;;24.10;51.40;;;;;;5085877;28;20043;-66
2020/12/11 05:01:45;;;;;;;4.13;1.80;;;24.10;51.60;;;;;;5083936;28;20019;-66
2020/12/11 05:04:13;;;;;;;3.72;1.80;;;24.10;51.30;;;;;;5082500;28;20250;-77
2020/12/11 05:06:40;;;;;;;5.22;2.50;;;24.10;51.30;;;;;;5079168;28;20024;-66
2020/12/11 05:09:19;;;;;;;4.82;2.08;;;24.10;51.30;;;;;;5086876;28;20020;-66
2020/12/11 05:11:47;;;;;;;4.55;2.05;;;24.10;51.30;;;;;;5081245;28;20114;-77
2020/12/11 05:14:34;;;;;;;6.05;1.88;;;24.10;51.60;;;;;;5085509;28;20032;-66
2020/12/11 05:17:02;;;;;;;6.15;1.65;;;24.20;51.60;;;;;;5082789;28;20143;-66
2020/12/11 05:19:30;;;;;;;4.85;1.85;;;24.20;51.40;;;;;;5087407;28;20093;-69
2020/12/11 05:22:13;;;;;;;4.60;1.70;;;24.20;51.20;;;;;;5083585;28;20040;-66
2020/12/11 05:24:42;;;;;;;3.80;1.65;;;24.20;51.20;;;;;;5085618;28;20028;-67
2020/12/11 05:27:29;;;;;;;2.63;1.50;;;24.20;51.20;;;;;;5078601;28;20051;-66
2020/12/11 05:29:58;;;;;;;4.38;1.75;;;24.20;51.20;;;;;;5083715;28;20531;-66
2020/12/11 05:32:51;;;;;;;2.95;1.25;;;24.20;51.00;;;;;;5081296;28;20051;-77
2020/12/11 05:35:18;;;;;;;5.32;2.03;;;24.20;50.90;;;;;;5080990;28;20035;-66
2020/12/11 05:37:57;;;;;;;2.50;1.50;;;24.20;50.80;;;;;;5082018;28;20028;-67
2020/12/11 05:40:31;;;;;;;6.50;1.40;;;24.10;50.90;;;;;;5085262;28;20035;-77
2020/12/11 05:43:15;;;;;;;3.33;1.75;;;24.20;50.90;;;;;;5082432;28;20574;-76
2020/12/11 05:45:53;;;;;;;4.00;1.73;;;24.20;51.00;;;;;;5081408;28;20032;-66
2020/12/11 05:48:22;;;;;;;4.00;1.52;;;24.30;50.90;;;;;;5081548;27;20016;-68
2020/12/11 05:50:49;;;;;;;3.17;1.48;;;24.20;50.90;;;;;;5085623;28;20107;-66
2020/12/11 05:53:16;;;;;;;5.10;1.70;;;24.30;50.90;;;;;;5082473;28;20063;-66
2020/12/11 05:55:43;;;;;;;5.97;1.38;;;24.30;50.90;;;;;;5086424;28;20036;-76
2020/12/11 05:58:11;;;;;;;3.90;1.80;;;24.30;50.90;;;;;;5083727;28;20102;-66
2020/12/11 06:00:41;;;;;;;3.20;1.40;;;24.30;51.00;;;;;;5084039;28;20016;-75
2020/12/11 06:03:09;;;;;;;3.05;1.80;;;24.40;50.80;;;;;;5079777;28;20024;-76
2020/12/11 06:05:40;;;;;;;7.90;1.80;;;24.40;50.80;;;;;;5082114;28;20035;-67
2020/12/11 06:08:11;;;;;;;2.13;1.42;;;24.40;50.80;;;;;;5082513;28;20503;-66
2020/12/11 06:10:41;;;;;;;4.70;1.33;;;24.40;50.70;;;;;;5084191;28;20570;-66
2020/12/11 06:13:09;;;;;;;3.90;1.95;;;24.40;50.60;;;;;;5082128;28;20039;-65
2020/12/11 06:15:41;;;;;;;3.97;2.30;;;24.50;50.80;;;;;;5078026;28;20036;-66
2020/12/11 06:18:14;;;;;;;3.08;1.73;;;24.50;50.50;;;;;;5082965;28;20028;-65
2020/12/11 06:20:45;;;;;;;4.05;1.90;;;24.40;50.10;;;;;;5082789;28;20028;-65
2020/12/11 06:23:25;;;;;;;5.22;1.35;;;24.40;50.20;;;;;;5083978;28;20115;-66
2020/12/11 06:26:03;;;;;;;3.63;1.50;;;24.40;50.00;;;;;;5082360;28;20027;-67
2020/12/11 06:28:36;;;;;;;3.92;1.58;;;24.40;50.50;;;;;;5083135;28;20016;-66
2020/12/11 06:31:17;;;;;;;3.25;1.25;;;24.40;50.00;;;;;;5080044;28;20028;-66
2020/12/11 06:33:46;;;;;;;2.28;1.33;;;24.40;50.10;;;;;;5082691;28;20036;-67
2020/12/11 06:36:14;;;;;;;1.50;1.02;;;24.50;50.30;;;;;;5079404;28;20459;-65
2020/12/11 06:38:50;;;;;;;2.17;1.20;;;24.50;50.00;;;;;;5065100;28;20079;-65
2020/12/11 06:41:29;;;;;;;3.58;1.80;;;24.60;50.20;;;;;;5080535;28;20051;-66
2020/12/11 06:43:57;;;;;;;4.70;1.60;;;24.60;50.10;;;;;;5083925;28;20028;-66
2020/12/11 06:46:26;;;;;;;2.63;1.10;;;24.60;50.00;;;;;;5080270;28;20028;-66
2020/12/11 06:49:09;;;;;;;3.97;1.63;;;24.60;50.00;;;;;;5082408;28;20020;-66
2020/12/11 06:51:56;;;;;;;3.00;2.70;;;24.60;50.30;;;;;;5079207;28;20032;-66
2020/12/11 06:54:23;;;;;;;3.60;2.15;;;24.60;49.80;;;;;;5067035;28;20101;-65
2020/12/11 06:56:55;;;;;;;1.30;1.20;;;24.60;49.90;;;;;;5082916;28;20515;-66
2020/12/11 06:59:24;;;;;;;1.25;1.15;;;24.60;49.80;;;;;;5085016;28;20085;-64
2020/12/11 07:01:52;;;;;;;4.28;1.75;;;24.60;50.00;;;;;;5081064;28;20464;-64
2020/12/11 07:04:20;;;;;;;3.15;1.10;;;24.70;49.80;;;;;;5082479;28;20032;-63
2020/12/11 07:06:53;;;;;;;4.00;1.33;;;24.70;50.00;;;;;;5080701;28;20119;-65
2020/12/11 07:09:21;;;;;;;3.40;1.27;;;24.70;49.80;;;;;;5083182;28;20476;-64
2020/12/11 07:11:48;;;;;;;4.28;1.45;;;24.80;49.70;;;;;;5057394;28;20413;-65
2020/12/11 07:14:15;;;;;;;4.75;1.73;;;24.80;49.80;;;;;;5081540;28;20028;-64
2020/12/11 07:16:44;;;;;;;4.35;1.60;;;24.80;49.70;;;;;;5080978;28;20027;-64
2020/12/11 07:19:12;;;;;;;4.95;1.65;;;24.80;49.90;;;;;;5065204;28;20058;-64
2020/12/11 07:21:40;;;;;;;2.90;1.63;;;24.90;49.80;;;;;;5079469;28;20097;-64
2020/12/11 07:24:08;;;;;;;7.50;2.75;;;24.90;49.60;;;;;;5082409;28;20032;-64
2020/12/11 07:26:35;;;;;;;5.72;2.47;;;24.90;49.30;;;;;;5078632;28;20130;-64
2020/12/11 07:29:13;;;;;;;6.40;2.05;;;24.80;49.40;;;;;;5083536;28;20115;-64
2020/12/11 07:31:47;;;;;;;2.63;1.27;;;24.80;49.40;;;;;;5077842;28;20039;-64
2020/12/11 07:34:19;;;;;;;5.07;1.30;;;24.80;49.30;;;;;;5083966;28;20032;-64
2020/12/11 07:36:48;;;;;;;2.08;1.08;;;24.80;49.10;;;;;;5080337;28;20111;-69
2020/12/11 07:39:16;;;;;;;9.50;1.38;;;24.80;49.20;;;;;;5083891;28;20024;-64
2020/12/11 07:41:47;;;;;;;3.47;1.15;;;24.80;49.10;;;;;;5079482;28;20077;-64
2020/12/11 07:44:36;;;;;;;4.22;1.75;;;24.80;48.90;;;;;;5082547;28;20035;-64
2020/12/11 07:47:11;;;;;;;4.47;1.83;;;24.80;49.00;;;;;;5081292;28;20107;-64
2020/12/11 07:49:44;;;;;;;3.00;1.40;;;24.80;48.80;;;;;;5082834;28;20507;-64
2020/12/11 07:52:13;;;;;;;4.68;1.90;;;24.80;48.70;;;;;;5076386;28;20050;-64
2020/12/11 07:54:44;;;;;;;3.47;1.33;;;24.80;48.70;;;;;;5079834;28;20107;-70
2020/12/11 07:57:11;;;;;;;;;;;24.80;48.70;;;;;;5076729;28;20035;-68
2020/12/11 07:59:38;;;;;;;4.57;1.58;;;24.80;48.70;;;;;;5081535;28;20007;-64
2020/12/11 08:02:05;;;;;;;3.03;1.30;;;24.80;48.50;;;;;;5082281;28;20596;-64
2020/12/11 08:04:36;;;;;;;2.78;1.40;;;24.80;48.30;;;;;;5080422;28;20035;-64
2020/12/11 08:07:04;;;;;;;6.15;2.13;;;24.80;48.40;;;;;;5064326;28;20230;-64
2020/12/11 08:09:32;;;;;;;3.53;1.50;;;24.80;48.20;;;;;;5079767;28;20032;-64
2020/12/11 08:12:19;;;;;;;2.35;0.80;;;24.80;48.30;;;;;;5083039;28;20128;-64
2020/12/11 08:14:47;;;;;;;5.03;1.25;;;24.90;48.30;;;;;;5063566;28;20553;-64
2020/12/11 08:17:15;;;;;;;2.05;0.90;;;24.90;48.40;;;;;;5085134;28;20291;-64
2020/12/11 08:19:43;;;;;;;3.33;1.30;;;24.90;48.30;;;;;;5083584;28;20059;-64
2020/12/11 08:22:15;;;;;;;5.05;1.27;;;24.90;48.30;;;;;;5086551;28;20176;-70
2020/12/11 08:24:44;;;;;;;3.63;1.15;;;24.90;48.10;;;;;;5083556;28;20036;-64
2020/12/11 08:27:24;;;;;;;3.70;1.08;;;24.90;48.20;;;;;;5085778;28;20024;-64
2020/12/11 08:30:12;;;;;;;3.17;1.13;;;24.90;48.10;;;;;;5057570;28;20028;-64
2020/12/11 08:32:39;;;;;;;3.20;1.27;;;24.90;48.00;;;;;;5062685;28;20299;-64
2020/12/11 08:35:23;;;;;;;3.63;1.10;;;24.90;48.00;;;;;;5081768;28;20024;-64
2020/12/11 08:37:54;;;;;;;4.63;1.20;;;25.00;48.00;;;;;;5086119;28;20032;-64
2020/12/11 08:40:20;;;;;;;;;;;24.90;48.00;;;;;;5081990;28;20032;-64
2020/12/11 08:48:30;;;;;;;2.17;1.02;;;24.90;47.90;;;;;;5085340;28;20058;-64
2020/12/11 08:51:02;;;;;;;3.75;1.05;;;24.90;47.90;;;;;;5080874;28;20020;-64
2020/12/11 08:53:34;;;;;;;4.85;1.33;;;24.90;48.00;;;;;;5086096;28;20089;-64
2020/12/11 08:56:07;;;;;;;3.88;1.40;;;24.90;48.10;;;;;;5083839;28;20030;-69
2020/12/11 08:58:35;;;;;;;4.22;1.38;;;24.90;47.90;;;;;;5086483;28;20063;-64
2020/12/11 09:01:04;;;;;;;3.35;1.35;;;24.90;48.10;;;;;;5083332;28;20289;-64
2020/12/11 09:03:31;;;;;;;3.17;1.40;;;24.80;48.00;;;;;;5079249;28;20462;-64
2020/12/11 09:05:58;;;;;;;2.15;0.98;;;24.80;47.90;;;;;;5081191;28;20173;-64
2020/12/11 09:08:25;;;;;;;3.67;1.42;;;24.80;48.30;;;;;;5059501;28;20516;-63
2020/12/11 09:10:52;;;;;;;2.10;1.23;;;24.80;48.10;;;;;;5082601;28;20319;-64
2020/12/11 09:13:20;;;;;;;4.15;1.77;;;24.80;48.20;;;;;;5086089;28;20055;-64
2020/12/11 09:15:47;;;;;;;6.20;1.45;;;24.80;48.20;;;;;;5082961;28;20024;-64
2020/12/11 09:18:14;;;;;;;2.00;1.02;;;24.80;48.70;;;;;;5083370;28;20111;-64
2020/12/11 09:20:41;;;;;;;3.13;1.02;;;24.70;48.20;;;;;;5079298;28;20031;-63
2020/12/11 09:23:08;;;;;;;2.63;1.15;;;24.70;48.50;;;;;;5081684;28;20078;-64
2020/12/11 09:25:35;;;;;;;2.78;1.17;;;24.70;48.30;;;;;;5079995;28;20036;-64
2020/12/11 09:28:08;;;;;;;3.40;1.20;;;24.70;48.40;;;;;;5082764;28;20023;-64
2020/12/11 09:30:37;;;;;;;3.28;1.10;;;24.70;48.20;;;;;;5067636;28;20464;-64
2020/12/11 09:33:18;;;;;;;2.97;1.17;;;24.60;48.30;;;;;;5081362;28;20036;-64
2020/12/11 09:35:45;;;;;;;3.45;1.40;;;24.60;48.10;;;;;;5085714;28;20024;-64
2020/12/11 09:38:13;;;;;;;4.30;1.42;;;24.60;48.30;;;;;;5082568;28;20039;-64
2020/12/11 09:40:51;;;;;;;5.03;1.65;;;24.60;48.10;;;;;;5083961;28;20055;-64
2020/12/11 09:48:41;;;;;;;5.10;1.20;;;24.40;48.10;;;;;;5082670;28;20418;-64
2020/12/11 09:56:25;;;;;;;3.35;1.33;;;24.40;48.10;;;;;;5083860;28;20111;-66
2020/12/11 09:58:57;;;;;;;3.30;1.25;;;24.30;48.10;;;;;;5080889;28;20220;-64
2020/12/11 10:01:46;;;;;;;2.20;1.20;;;24.30;48.20;;;;;;5084995;28;20024;-63
2020/12/11 10:04:13;;;;;;;4.45;1.20;;;24.30;48.30;;;;;;5081708;28;20060;-64
2020/12/11 10:06:40;;;;;;;6.75;1.70;;;24.20;48.30;;;;;;5084680;28;20032;-70
2020/12/11 10:09:07;;;;;;;2.78;1.30;;;24.20;48.40;;;;;;5076626;28;20154;-64
2020/12/11 10:11:34;;;;;;;3.13;1.48;;;24.20;48.40;;;;;;5084579;28;20340;-63
2020/12/11 10:16:42;;;;;;;4.18;1.33;;;24.10;48.50;;;;;;5080937;28;20393;-64
2020/12/11 10:19:10;;;;;;;2.42;1.05;;;24.10;48.60;;;;;;5082349;28;20036;-64
2020/12/11 10:21:37;;;;;;;2.08;1.05;;;24.10;48.70;;;;;;5084569;28;20043;-64
2020/12/11 10:24:04;;;;;;;6.20;1.48;;;24.10;48.60;;;;;;5079880;28;20107;-64
2020/12/11 10:26:31;;;;;;;1.98;1.20;;;24.10;48.60;;;;;;5082530;28;20453;-69
2020/12/11 10:28:58;;;;;;;3.40;1.58;;;24.00;48.70;;;;;;5077128;28;20027;-64
2020/12/11 10:31:31;;;;;;;1.63;0.85;;;24.00;48.80;;;;;;5082542;28;20111;-64
2020/12/11 10:33:58;;;;;;;5.57;1.50;;;24.00;48.90;;;;;;5081297;28;20044;-70
2020/12/11 10:36:35;;;;;;;2.78;1.00;;;23.90;49.50;;;;;;5083996;28;20024;-69
2020/12/11 10:39:02;;;;;;;6.90;1.95;;;23.90;48.90;;;;;;5081531;28;20020;-64
2020/12/11 10:41:29;;;;;;;1.88;1.17;;;23.90;48.90;;;;;;5084161;28;20040;-64
2020/12/11 10:43:56;;;;;;;3.13;1.08;;;23.90;48.90;;;;;;5080642;28;20122;-64
2020/12/11 10:46:23;;;;;;;4.75;1.23;;;23.80;48.80;;;;;;5084090;28;20031;-64
2020/12/11 10:48:50;;;;;;;3.67;1.40;;;23.80;49.00;;;;;;5080680;28;20034;-66
2020/12/11 10:51:18;;;;;;;4.43;1.27;;;23.70;49.00;;;;;;5069272;28;20040;-64
2020/12/11 10:53:46;;;;;;;1.85;1.00;;;23.70;49.00;;;;;;5084989;28;20605;-70
2020/12/11 10:56:14;;;;;;;7.10;1.60;;;23.70;49.20;;;;;;5081656;28;20024;-64
2020/12/11 10:58:47;;;;;;;2.85;0.82;;;23.70;49.30;;;;;;5084827;28;20031;-64
2020/12/11 11:01:14;;;;;;;2.38;1.17;;;23.70;49.40;;;;;;5080130;28;20270;-64
2020/12/11 11:03:41;;;;;;;2.80;1.10;;;23.60;49.50;;;;;;5064466;28;20036;-70
2020/12/11 11:06:26;;;;;;;4.15;1.17;;;23.60;49.50;;;;;;5081285;28;20067;-64
2020/12/11 11:12:01;;;;;;;4.38;1.33;;;23.60;49.50;;;;;;5080789;28;20105;-70
2020/12/11 11:29:53;;;;;;;1.48;0.93;;;23.30;49.80;;;;;;5082898;28;20460;-70
2020/12/11 11:32:20;;;;;;;4.15;1.33;;;23.30;50.00;;;;;;5081677;28;20040;-71
2020/12/11 11:34:47;;;;;;;4.28;1.02;;;23.30;50.00;;;;;;5082755;28;20105;-71
2020/12/11 11:37:14;;;;;;;2.92;1.00;;;23.30;50.10;;;;;;5080016;28;20236;-71
2020/12/11 11:39:41;;;;;;;3.10;1.30;;;23.30;50.10;;;;;;5083517;28;20024;-71
2020/12/11 11:42:08;;;;;;;5.30;1.13;;;23.20;50.10;;;;;;5062579;28;20473;-65
2020/12/11 11:44:51;;;;;;;3.10;1.10;;;23.20;50.30;;;;;;5084552;28;20035;-70
2020/12/11 11:47:18;;;;;;;3.78;1.10;;;23.20;50.30;;;;;;5071775;28;20109;-72
2020/12/11 11:52:28;;;;;;;1.90;0.77;;;23.20;50.30;;;;;;5080192;28;20038;-71
2020/12/11 11:54:55;;;;;;;3.33;1.00;;;23.10;50.20;;;;;;5082631;28;20032;-70
2020/12/11 11:57:23;;;;;;;2.15;1.02;;;23.10;50.10;;;;;;5078995;27;20032;-64
2020/12/11 11:59:50;;;;;;;2.38;0.90;;;23.10;50.30;;;;;;5080480;28;20475;-70
2020/12/11 12:02:17;;;;;;;4.25;1.27;;;23.10;50.30;;;;;;5075524;28;20438;-71
2020/12/11 12:04:44;;;;;;;5.05;1.65;;;23.00;50.40;;;;;;5083805;28;20384;-71
2020/12/11 12:07:11;;;;;;;4.65;1.35;;;23.00;50.40;;;;;;5079800;28;20035;-70
2020/12/11 12:09:38;;;;;;;4.60;1.40;;;23.00;50.40;;;;;;5083257;28;22104;-71
2020/12/11 12:12:05;;;;;;;6.88;1.30;;;23.00;50.40;;;;;;5061534;28;20097;-70
2020/12/11 12:14:32;;;;;;;4.50;1.20;;;22.90;50.40;;;;;;5084455;28;20032;-71
2020/12/11 12:17:02;;;;;;;4.05;0.80;;;22.90;50.30;;;;;;5084937;28;20106;-71
2020/12/11 12:19:35;;;;;;;6.00;1.23;;;22.90;50.40;;;;;;5081223;28;20088;-70
2020/12/11 12:29:47;;;;;;;7.45;1.10;;;22.80;51.10;;;;;;5080332;28;20044;-70
2020/12/11 12:32:17;;;;;;;3.85;1.00;;;22.70;51.10;;;;;;5077791;28;20226;-70
2020/12/11 12:40:33;;;;;;;5.00;1.15;;;22.70;51.20;;;;;;5080078;28;20355;-64
2020/12/11 12:43:07;;;;;;;5.70;1.42;;;22.70;51.50;;;;;;5079128;28;20119;-71
2020/12/11 12:45:34;;;;;;;2.38;1.10;;;22.70;51.50;;;;;;5079900;28;20031;-71
2020/12/11 12:48:01;;;;;;;3.90;1.13;;;22.70;51.40;;;;;;5080501;28;20123;-72
2020/12/11 12:50:31;;;;;;;3.35;1.10;;;22.60;51.50;;;;;;5082147;28;20111;-72
2020/12/11 12:52:58;;;;;;;4.22;1.60;;;22.60;51.40;;;;;;5084424;28;20027;-71
2020/12/11 12:55:40;;;;;;;2.50;0.93;;;22.50;51.70;;;;;;5076636;28;20111;-70
2020/12/11 12:58:09;;;;;;;5.07;1.58;;;22.50;51.80;;;;;;5082386;28;20032;-70
2020/12/11 13:00:53;;;;;;;4.53;1.10;;;22.60;51.80;;;;;;5081000;28;20020;-70
2020/12/11 13:03:48;;;;;;;4.05;1.50;;;22.60;51.90;;;;;;5084602;28;20066;-70
2020/12/11 13:06:15;;;;;;;2.60;0.90;;;22.50;51.70;;;;;;5082416;28;20101;-70
2020/12/11 13:08:42;;;;;;;7.20;1.60;;;22.50;51.90;;;;;;5085381;28;20463;-70
2020/12/11 13:11:11;;;;;;;2.83;1.15;;;22.50;51.80;;;;;;5082981;28;20032;-69
2020/12/11 13:13:38;;;;;;;2.90;1.10;;;22.40;51.90;;;;;;5067963;28;20134;-70
2020/12/11 13:16:05;;;;;;;3.33;1.00;;;22.40;52.00;;;;;;5081406;28;20024;-70
2020/12/11 13:18:32;;;;;;;4.63;1.63;;;22.30;52.00;;;;;;5084118;28;20101;-70
2020/12/11 13:21:03;;;;;;;3.30;1.33;;;22.30;52.00;;;;;;5082780;28;20101;-70
2020/12/11 13:26:53;;;;;;;4.05;1.15;;;22.30;52.30;;;;;;5081186;28;20067;-63
2020/12/11 13:29:12;;;;;;;4.95;1.58;;;22.30;52.10;;;;;;5078713;28;20131;-63
2020/12/11 13:31:41;;;;;;;5.80;1.55;;;22.20;52.10;;;;;;5072606;28;20032;-69
2020/12/11 13:34:09;;;;;;;3.33;0.90;;;22.10;52.20;;;;;;5074982;28;20115;-68
2020/12/11 13:36:36;;;;;;;2.35;0.95;;;22.20;52.50;;;;;;5062178;28;20028;-63
2020/12/11 13:39:05;;;;;;;5.95;1.00;;;22.10;52.50;;;;;;5085058;28;20027;-62
2020/12/11 13:41:35;;;;;;;3.50;1.20;;;22.10;52.70;;;;;;5082225;28;20045;-63
2020/12/11 13:44:02;;;;;;;4.88;1.63;;;22.20;52.80;;;;;;5081598;28;20028;-64
2020/12/11 13:46:29;;;;;;;4.07;1.60;;;22.10;52.90;;;;;;5082584;28;20433;-64
2020/12/11 13:48:56;;;;;;;8.57;1.83;;;21.20;51.50;;;;;;5086166;28;20032;-64
2020/12/11 13:51:23;;;;;;;9.60;1.83;;;20.60;52.40;;;;;;5080974;28;20316;-64
2020/12/11 13:53:50;;;;;;;5.10;1.45;;;20.30;53.50;;;;;;5085068;28;20511;-64
2020/12/11 13:56:17;;;;;;;4.78;1.50;;;20.00;54.10;;;;;;5083493;28;20046;-64